Time;durP1;ratioP1;P1;durP2;ratioP2;P2;SDS_P1;SDS_P2;PMS_P1;PMS_P2;Temp;Humidity;BMP_temperature;BMP_pressure;BME280_temperature;BME280_humidity;BME280_pressure;Samples;Min_cycle;Max_cycle;Signal;HPM_P1;HPM_P2
2022/03/28 00:00:39;;;;;;;3.05;1.67;;;;;;;;;;5089176;28;20044;-70
2022/03/28 00:03:05;;;;;;;3.05;1.45;;;;;;;;;;5088816;28;20440;-70
2022/03/28 00:05:32;;;;;;;4.03;1.60;;;;;;;;;;5088193;28;20101;-70
2022/03/28 00:07:58;;;;;;;4.88;1.70;;;;;;;;;;5054225;28;20134;-70
2022/03/28 00:10:24;;;;;;;4.47;1.48;;;;;;;;;;5088566;28;20449;-70
2022/03/28 00:12:51;;;;;;;2.58;1.20;;;;;;;;;;5070888;28;20442;-70
2022/03/28 00:15:17;;;;;;;4.85;1.70;;;;;;;;;;5071016;28;20044;-70
2022/03/28 00:17:43;;;;;;;4.03;1.90;;;;;;;;;;5088261;28;20131;-69
2022/03/28 00:20:11;;;;;;;3.70;2.20;;;;;;;;;;5054160;28;20055;-69
2022/03/28 00:22:38;;;;;;;4.72;1.70;;;;;;;;;;5088027;28;20076;-69
2022/03/28 00:25:04;;;;;;;6.30;1.50;;;;;;;;;;5088972;28;20052;-70
2022/03/28 00:27:31;;;;;;;4.93;1.60;;;;;;;;;;5070573;28;20135;-70
2022/03/28 00:29:57;;;;;;;8.73;1.90;;;;;;;;;;5070435;28;20123;-70
2022/03/28 00:32:23;;;;;;;6.82;1.98;;;;;;;;;;5053843;28;20048;-69
2022/03/28 00:34:49;;;;;;;4.72;1.50;;;;;;;;;;5088352;28;20059;-69
2022/03/28 00:37:15;;;;;;;4.43;1.90;;;;;;;;;;5070975;28;20517;-69
2022/03/28 00:39:41;;;;;;;4.82;1.70;;;;;;;;;;5087939;28;20043;-69
2022/03/28 00:42:07;;;;;;;5.80;1.30;;;;;;;;;;5070675;28;20419;-69
2022/03/28 00:44:34;;;;;;;6.18;1.55;;;;;;;;;;5087733;28;20044;-69
2022/03/28 00:47:00;;;;;;;3.20;1.42;;;;;;;;;;5088332;28;20048;-69
2022/03/28 00:49:26;;;;;;;3.05;1.50;;;;;;;;;;5088906;28;20055;-68
2022/03/28 00:51:52;;;;;;;4.35;1.70;;;;;;;;;;5068964;28;20048;-68
2022/03/28 00:54:19;;;;;;;3.00;1.45;;;;;;;;;;5088165;28;20044;-68
2022/03/28 00:56:47;;;;;;;5.07;1.88;;;;;;;;;;5070285;28;20036;-69
2022/03/28 00:59:13;;;;;;;4.18;1.60;;;;;;;;;;5069567;28;20514;-68
2022/03/28 01:01:39;;;;;;;3.72;1.48;;;;;;;;;;5087632;28;20397;-69
2022/03/28 01:04:08;;;;;;;4.68;1.75;;;;;;;;;;5053688;28;20048;-68
2022/03/28 01:06:36;;;;;;;3.45;1.65;;;;;;;;;;5087365;28;20513;-68
2022/03/28 01:09:02;;;;;;;2.58;1.20;;;;;;;;;;5088370;28;20146;-68
2022/03/28 01:11:29;;;;;;;4.05;1.50;;;;;;;;;;5088565;28;20324;-68
2022/03/28 01:13:55;;;;;;;3.88;1.33;;;;;;;;;;5069868;28;20072;-68
2022/03/28 01:16:21;;;;;;;3.58;1.40;;;;;;;;;;5089362;28;20040;-69
2022/03/28 01:18:48;;;;;;;3.45;1.65;;;;;;;;;;5088415;28;20048;-69
2022/03/28 01:21:14;;;;;;;4.75;1.30;;;;;;;;;;5070919;28;20044;-69
2022/03/28 01:23:40;;;;;;;2.40;1.40;;;;;;;;;;5089285;28;20040;-68
2022/03/28 01:26:08;;;;;;;3.63;1.77;;;;;;;;;;5070679;28;20047;-69
2022/03/28 01:28:34;;;;;;;3.72;1.55;;;;;;;;;;5070492;28;20127;-69
2022/03/28 01:31:00;;;;;;;2.30;1.42;;;;;;;;;;5088741;28;20040;-68
2022/03/28 01:33:26;;;;;;;3.97;1.27;;;;;;;;;;5070574;28;20048;-69
2022/03/28 01:35:52;;;;;;;2.42;1.30;;;;;;;;;;5053837;28;20055;-69
2022/03/28 01:38:19;;;;;;;4.40;1.48;;;;;;;;;;5088607;28;20052;-69
2022/03/28 01:40:54;;;;;;;3.35;1.50;;;;;;;;;;5088031;28;20048;-69
2022/03/28 01:43:21;;;;;;;2.75;1.33;;;;;;;;;;5069493;28;20044;-69
2022/03/28 01:45:48;;;;;;;3.17;1.48;;;;;;;;;;5087917;28;20454;-69
2022/03/28 01:48:14;;;;;;;2.45;1.15;;;;;;;;;;5070327;28;20040;-70
2022/03/28 01:50:40;;;;;;;3.72;1.77;;;;;;;;;;5053122;28;20087;-68
2022/03/28 01:53:06;;;;;;;3.63;1.23;;;;;;;;;;5088287;28;20052;-68
2022/03/28 01:55:32;;;;;;;2.75;1.42;;;;;;;;;;5069474;28;20403;-68
2022/03/28 01:57:58;;;;;;;5.13;1.60;;;;;;;;;;5088359;28;20044;-68
2022/03/28 02:00:25;;;;;;;2.13;1.30;;;;;;;;;;5088256;28;20055;-68
2022/03/28 02:02:51;;;;;;;4.80;1.20;;;;;;;;;;5090393;28;20065;-68
2022/03/28 02:05:18;;;;;;;3.35;1.33;;;;;;;;;;5073937;28;20574;-68
2022/03/28 02:07:46;;;;;;;2.80;1.20;;;;;;;;;;5073681;28;20097;-68
2022/03/28 02:10:15;;;;;;;4.53;1.70;;;;;;;;;;5092101;28;20058;-68
2022/03/28 02:12:41;;;;;;;3.43;1.30;;;;;;;;;;5073521;28;20383;-68
2022/03/28 02:15:08;;;;;;;4.25;1.50;;;;;;;;;;5073721;28;20450;-69
2022/03/28 02:17:40;;;;;;;2.35;1.20;;;;;;;;;;5092032;28;20117;-69
2022/03/28 02:20:08;;;;;;;2.75;1.23;;;;;;;;;;5091573;28;20124;-71
2022/03/28 02:22:35;;;;;;;6.53;1.30;;;;;;;;;;5090368;28;20043;-69
2022/03/28 02:25:01;;;;;;;3.83;1.20;;;;;;;;;;5089213;28;20040;-69
2022/03/28 02:27:27;;;;;;;4.22;1.50;;;;;;;;;;5073552;28;20062;-69
2022/03/28 02:29:53;;;;;;;4.68;1.42;;;;;;;;;;5071539;28;20097;-69
2022/03/28 02:32:19;;;;;;;4.97;1.48;;;;;;;;;;5091080;28;20520;-69
2022/03/28 02:34:48;;;;;;;1.88;1.17;;;;;;;;;;5089521;28;20052;-70
2022/03/28 02:37:14;;;;;;;3.35;1.35;;;;;;;;;;5070374;28;20510;-71
2022/03/28 02:39:40;;;;;;;4.03;1.70;;;;;;;;;;5091104;28;20047;-70
2022/03/28 02:42:07;;;;;;;2.45;1.17;;;;;;;;;;5089213;28;20062;-70
2022/03/28 02:44:33;;;;;;;4.70;1.35;;;;;;;;;;5072934;28;20051;-71
2022/03/28 02:46:59;;;;;;;2.42;1.27;;;;;;;;;;5090681;28;20197;-70
2022/03/28 02:49:25;;;;;;;2.40;1.25;;;;;;;;;;5072733;28;20040;-70
2022/03/28 02:51:51;;;;;;;2.20;1.23;;;;;;;;;;5091181;28;20044;-70
2022/03/28 02:54:17;;;;;;;2.45;1.02;;;;;;;;;;5072050;28;20035;-70
2022/03/28 02:56:43;;;;;;;1.92;1.10;;;;;;;;;;5090851;28;20055;-70
2022/03/28 02:59:09;;;;;;;3.63;1.20;;;;;;;;;;5089442;28;20395;-70
2022/03/28 03:01:35;;;;;;;2.65;1.30;;;;;;;;;;5089415;28;20048;-70
2022/03/28 03:04:01;;;;;;;3.20;1.30;;;;;;;;;;5089629;28;20525;-70
2022/03/28 03:06:27;;;;;;;2.83;1.52;;;;;;;;;;5090742;28;20564;-70
2022/03/28 03:08:53;;;;;;;2.28;1.00;;;;;;;;;;5072263;28;20471;-70
2022/03/28 03:11:19;;;;;;;2.05;1.20;;;;;;;;;;5089774;28;20478;-70
2022/03/28 03:13:46;;;;;;;3.67;1.40;;;;;;;;;;5071478;28;20402;-70
2022/03/28 03:16:12;;;;;;;2.92;1.30;;;;;;;;;;5071316;28;20646;-70
2022/03/28 03:18:38;;;;;;;2.63;1.45;;;;;;;;;;5090592;28;20080;-70
2022/03/28 03:21:05;;;;;;;2.83;1.35;;;;;;;;;;5071534;28;20486;-70
2022/03/28 03:23:31;;;;;;;3.38;1.30;;;;;;;;;;5071603;28;20052;-70
2022/03/28 03:25:57;;;;;;;2.58;1.20;;;;;;;;;;5072358;28;20052;-70
2022/03/28 03:28:23;;;;;;;2.75;1.13;;;;;;;;;;5071809;28;20036;-70
2022/03/28 03:30:49;;;;;;;3.65;1.67;;;;;;;;;;5071963;28;20048;-70
2022/03/28 03:33:15;;;;;;;2.75;1.48;;;;;;;;;;5071711;28;20131;-70
2022/03/28 03:35:41;;;;;;;3.67;1.40;;;;;;;;;;5088556;28;20055;-69
2022/03/28 03:38:07;;;;;;;4.78;1.40;;;;;;;;;;5089299;28;20125;-70
2022/03/28 03:40:33;;;;;;;2.55;1.38;;;;;;;;;;5054730;28;20055;-70
2022/03/28 03:42:59;;;;;;;1.77;1.20;;;;;;;;;;5055227;28;20044;-70
2022/03/28 03:45:25;;;;;;;2.92;1.40;;;;;;;;;;5071070;28;20089;-70
2022/03/28 03:47:52;;;;;;;3.45;1.27;;;;;;;;;;5071664;28;20117;-70
2022/03/28 03:50:18;;;;;;;6.10;2.03;;;;;;;;;;5088624;28;20044;-70
2022/03/28 03:52:44;;;;;;;2.78;1.15;;;;;;;;;;5089584;28;20819;-70
2022/03/28 03:55:10;;;;;;;2.30;1.38;;;;;;;;;;5071220;28;20040;-70
2022/03/28 03:57:37;;;;;;;2.50;1.48;;;;;;;;;;5089693;28;20040;-70
2022/03/28 04:00:04;;;;;;;2.72;1.50;;;;;;;;;;5089938;28;20397;-70
2022/03/28 04:02:30;;;;;;;2.58;1.33;;;;;;;;;;5090311;28;20044;-70
2022/03/28 04:04:56;;;;;;;3.75;1.30;;;;;;;;;;5072009;28;20046;-70
2022/03/28 04:07:22;;;;;;;1.95;1.17;;;;;;;;;;5089146;28;20043;-70
2022/03/28 04:09:48;;;;;;;3.17;1.30;;;;;;;;;;5090512;28;20140;-69
2022/03/28 04:12:14;;;;;;;2.58;1.20;;;;;;;;;;5071570;28;20081;-71
2022/03/28 04:14:40;;;;;;;7.63;1.20;;;;;;;;;;5071818;28;20109;-70
2022/03/28 04:17:07;;;;;;;3.53;1.20;;;;;;;;;;5070620;28;20048;-70
2022/03/28 04:19:33;;;;;;;3.08;1.30;;;;;;;;;;5089771;28;20490;-70
2022/03/28 04:21:59;;;;;;;3.22;1.20;;;;;;;;;;5070431;28;20083;-70
2022/03/28 04:24:25;;;;;;;3.10;1.30;;;;;;;;;;5088999;28;20442;-69
2022/03/28 04:26:51;;;;;;;3.13;1.10;;;;;;;;;;5088725;28;20036;-68
2022/03/28 04:29:17;;;;;;;2.75;1.10;;;;;;;;;;5089041;28;20047;-68
2022/03/28 04:31:43;;;;;;;10.73;1.52;;;;;;;;;;5071638;28;20089;-68
2022/03/28 04:34:09;;;;;;;2.58;1.30;;;;;;;;;;5088703;28;20402;-68
2022/03/28 04:36:37;;;;;;;3.85;1.20;;;;;;;;;;5071650;28;20128;-68
2022/03/28 04:39:04;;;;;;;4.63;1.10;;;;;;;;;;5088611;28;20410;-68
2022/03/28 04:41:30;;;;;;;1.55;1.00;;;;;;;;;;5071627;28;20048;-69
2022/03/28 04:43:57;;;;;;;1.65;0.80;;;;;;;;;;5070800;28;20505;-68
2022/03/28 04:46:23;;;;;;;1.75;0.80;;;;;;;;;;5088543;28;20090;-68
2022/03/28 04:48:49;;;;;;;2.25;1.23;;;;;;;;;;5089678;28;20496;-68
2022/03/28 04:51:15;;;;;;;2.95;1.02;;;;;;;;;;5070229;28;20135;-68
2022/03/28 04:53:42;;;;;;;1.67;0.93;;;;;;;;;;5089635;28;20052;-68
2022/03/28 04:56:08;;;;;;;2.38;1.30;;;;;;;;;;5070015;28;20048;-68
2022/03/28 04:58:34;;;;;;;4.38;1.23;;;;;;;;;;5088752;28;20040;-68
2022/03/28 05:01:00;;;;;;;2.00;1.05;;;;;;;;;;5053337;28;20051;-68
2022/03/28 05:03:26;;;;;;;5.57;1.17;;;;;;;;;;5070637;28;20048;-68
2022/03/28 05:05:52;;;;;;;4.25;1.35;;;;;;;;;;5070786;28;20043;-67
2022/03/28 05:08:19;;;;;;;2.13;1.10;;;;;;;;;;5069192;28;20181;-68
2022/03/28 05:10:45;;;;;;;1.58;0.80;;;;;;;;;;5068974;28;20048;-68
2022/03/28 05:13:17;;;;;;;1.88;0.95;;;;;;;;;;5046591;28;20135;-68
2022/03/28 05:15:43;;;;;;;1.33;1.05;;;;;;;;;;5050745;28;20113;-69
2022/03/28 05:18:09;;;;;;;2.30;1.20;;;;;;;;;;5064980;28;20036;-69
2022/03/28 05:20:35;;;;;;;2.85;1.20;;;;;;;;;;5079890;28;20051;-68
2022/03/28 05:23:01;;;;;;;1.30;0.90;;;;;;;;;;5083656;28;20412;-69
2022/03/28 05:25:27;;;;;;;7.07;1.10;;;;;;;;;;5088601;28;20117;-69
2022/03/28 05:27:53;;;;;;;1.90;0.93;;;;;;;;;;5088534;28;20041;-70
2022/03/28 05:30:19;;;;;;;3.15;1.10;;;;;;;;;;5087992;28;20047;-69
2022/03/28 05:32:45;;;;;;;2.53;1.20;;;;;;;;;;5088600;28;20061;-69
2022/03/28 05:35:11;;;;;;;3.08;1.70;;;;;;;;;;5088355;28;20417;-68
2022/03/28 05:37:37;;;;;;;1.95;0.98;;;;;;;;;;5069588;28;20112;-68
2022/03/28 05:40:04;;;;;;;1.77;0.90;;;;;;;;;;5088314;28;20079;-68
2022/03/28 05:42:30;;;;;;;3.03;0.93;;;;;;;;;;5088547;28;20043;-69
2022/03/28 05:44:56;;;;;;;1.98;1.27;;;;;;;;;;5069900;28;20123;-68
2022/03/28 05:47:22;;;;;;;1.70;0.93;;;;;;;;;;5088225;28;20122;-68
2022/03/28 05:49:48;;;;;;;3.28;1.00;;;;;;;;;;5069908;28;20063;-69
2022/03/28 05:52:15;;;;;;;1.73;1.00;;;;;;;;;;5087525;28;20087;-69
2022/03/28 05:54:41;;;;;;;3.55;1.00;;;;;;;;;;5087340;28;20079;-68
2022/03/28 05:57:07;;;;;;;2.13;0.98;;;;;;;;;;5087938;28;20127;-66
2022/03/28 05:59:33;;;;;;;1.50;0.85;;;;;;;;;;5087067;28;20084;-69
2022/03/28 06:01:59;;;;;;;1.65;1.00;;;;;;;;;;5087667;28;20043;-69
2022/03/28 06:04:25;;;;;;;5.70;1.00;;;;;;;;;;5087675;28;20621;-68
2022/03/28 06:06:51;;;;;;;1.40;0.90;;;;;;;;;;5068997;28;20420;-68
2022/03/28 06:09:18;;;;;;;2.35;0.80;;;;;;;;;;5087626;28;20046;-67
2022/03/28 06:11:44;;;;;;;2.95;1.30;;;;;;;;;;5052242;28;20051;-68
2022/03/28 06:14:10;;;;;;;2.92;0.80;;;;;;;;;;5069809;28;20044;-69
2022/03/28 06:16:36;;;;;;;1.60;1.00;;;;;;;;;;5069326;28;20044;-68
2022/03/28 06:19:02;;;;;;;2.17;1.10;;;;;;;;;;5087387;28;20047;-67
2022/03/28 06:21:31;;;;;;;5.68;1.20;;;;;;;;;;5052719;28;20045;-69
2022/03/28 06:23:58;;;;;;;10.77;1.27;;;;;;;;;;5052362;28;20050;-69
2022/03/28 06:26:24;;;;;;;2.75;0.80;;;;;;;;;;5069238;28;20048;-68
2022/03/28 06:28:50;;;;;;;1.73;1.10;;;;;;;;;;5066416;28;20052;-67
2022/03/28 06:31:16;;;;;;;1.55;0.88;;;;;;;;;;5066898;28;20418;-68
2022/03/28 06:33:42;;;;;;;2.05;1.17;;;;;;;;;;5066641;28;20094;-68
2022/03/28 06:36:08;;;;;;;1.73;0.85;;;;;;;;;;5086965;28;20101;-69
2022/03/28 06:38:35;;;;;;;4.20;0.95;;;;;;;;;;5087973;28;20539;-68
2022/03/28 06:41:01;;;;;;;2.50;1.00;;;;;;;;;;5076884;28;20064;-68
2022/03/28 06:43:27;;;;;;;4.40;1.02;;;;;;;;;;5087330;28;20040;-69
2022/03/28 06:45:53;;;;;;;1.95;1.00;;;;;;;;;;5087285;28;20398;-67
2022/03/28 06:48:20;;;;;;;2.33;0.90;;;;;;;;;;5070160;28;20405;-68
2022/03/28 06:50:46;;;;;;;3.92;0.90;;;;;;;;;;5090614;28;20043;-68
2022/03/28 06:53:12;;;;;;;2.53;0.90;;;;;;;;;;5072970;28;20514;-67
2022/03/28 06:55:39;;;;;;;2.63;1.10;;;;;;;;;;5090734;28;20451;-68
2022/03/28 06:58:05;;;;;;;4.80;0.90;;;;;;;;;;5089469;28;20097;-68
2022/03/28 07:00:31;;;;;;;2.17;1.10;;;;;;;;;;5091126;28;20044;-68
2022/03/28 07:02:57;;;;;;;2.40;1.00;;;;;;;;;;5055122;28;20083;-67
2022/03/28 07:05:23;;;;;;;3.17;1.17;;;;;;;;;;5090790;28;20048;-71
2022/03/28 07:07:50;;;;;;;3.42;1.35;;;;;;;;;;5071544;28;20075;-69
2022/03/28 07:10:20;;;;;;;1.88;0.90;;;;;;;;;;5090217;28;20090;-68
2022/03/28 07:12:46;;;;;;;1.55;0.75;;;;;;;;;;5091203;28;20462;-69
2022/03/28 07:15:13;;;;;;;2.22;1.50;;;;;;;;;;5071290;28;20040;-69
2022/03/28 07:17:54;;;;;;;1.48;0.90;;;;;;;;;;5071941;28;20051;-67
2022/03/28 07:20:24;;;;;;;1.35;0.82;;;;;;;;;;5089519;28;20051;-67
2022/03/28 07:22:50;;;;;;;1.58;0.82;;;;;;;;;;5090793;28;20151;-66
2022/03/28 07:25:16;;;;;;;2.42;0.95;;;;;;;;;;5089451;28;20048;-67
2022/03/28 07:27:42;;;;;;;2.92;1.00;;;;;;;;;;5090782;28;20054;-68
2022/03/28 07:30:09;;;;;;;2.63;0.80;;;;;;;;;;5072533;28;20066;-67
2022/03/28 07:32:36;;;;;;;7.97;1.45;;;;;;;;;;5088905;28;20040;-70
2022/03/28 07:35:02;;;;;;;2.38;1.40;;;;;;;;;;5071702;28;20438;-70
2022/03/28 07:37:28;;;;;;;3.75;1.05;;;;;;;;;;5089907;28;20040;-69
2022/03/28 07:39:55;;;;;;;4.00;1.35;;;;;;;;;;5071616;28;20094;-69
2022/03/28 07:42:21;;;;;;;2.25;0.95;;;;;;;;;;5089810;28;20062;-70
2022/03/28 07:44:48;;;;;;;2.88;0.90;;;;;;;;;;5071284;28;20051;-69
2022/03/28 07:47:14;;;;;;;2.47;0.98;;;;;;;;;;5072169;28;20451;-69
2022/03/28 07:49:40;;;;;;;1.77;1.10;;;;;;;;;;5053291;28;20438;-70
2022/03/28 07:52:07;;;;;;;3.38;1.10;;;;;;;;;;5089372;28;20046;-70
2022/03/28 07:54:34;;;;;;;4.30;1.38;;;;;;;;;;5072612;28;20486;-69
2022/03/28 07:57:00;;;;;;;2.80;1.00;;;;;;;;;;5072429;28;20056;-69
2022/03/28 07:59:26;;;;;;;3.03;1.10;;;;;;;;;;5071202;28;20143;-70
2022/03/28 08:01:52;;;;;;;5.90;1.20;;;;;;;;;;5090418;28;20047;-71
2022/03/28 08:04:18;;;;;;;8.77;1.55;;;;;;;;;;5089834;28;20123;-70
2022/03/28 08:06:45;;;;;;;6.95;1.40;;;;;;;;;;5071099;28;20133;-71
2022/03/28 08:09:11;;;;;;;2.70;1.48;;;;;;;;;;5090308;28;20612;-70
2022/03/28 08:11:37;;;;;;;3.13;1.40;;;;;;;;;;5088389;28;20134;-72
2022/03/28 08:14:04;;;;;;;15.60;1.63;;;;;;;;;;5090099;28;20386;-74
2022/03/28 08:16:31;;;;;;;7.07;1.88;;;;;;;;;;5088921;28;20048;-71
2022/03/28 08:18:57;;;;;;;2.97;1.40;;;;;;;;;;5090271;28;20130;-71
2022/03/28 08:21:23;;;;;;;3.08;1.35;;;;;;;;;;5090206;28;20055;-71
2022/03/28 08:23:49;;;;;;;1.95;1.20;;;;;;;;;;5071595;28;20468;-74
2022/03/28 08:26:15;;;;;;;2.97;1.10;;;;;;;;;;5089720;28;20083;-74
2022/03/28 08:28:42;;;;;;;2.00;1.17;;;;;;;;;;5070851;28;20094;-72
2022/03/28 08:31:09;;;;;;;2.85;1.30;;;;;;;;;;5071983;28;20521;-72
2022/03/28 08:33:35;;;;;;;3.22;1.42;;;;;;;;;;5070793;28;20089;-72
2022/03/28 08:36:01;;;;;;;2.60;1.20;;;;;;;;;;5089889;28;20530;-70
2022/03/28 08:38:27;;;;;;;5.75;1.25;;;;;;;;;;5088834;28;20048;-72
2022/03/28 08:40:54;;;;;;;1.88;1.10;;;;;;;;;;5085699;28;20127;-71
2022/03/28 08:43:21;;;;;;;2.65;1.35;;;;;;;;;;5089228;28;20131;-71
2022/03/28 08:45:49;;;;;;;1.65;1.50;;;;;;;;;;5088712;28;20044;-71
2022/03/28 08:48:16;;;;;;;2.37;1.30;;;;;;;;;;5075802;28;20036;-73
2022/03/28 08:50:43;;;;;;;2.97;1.33;;;;;;;;;;5083026;28;20048;-73
2022/03/28 08:53:09;;;;;;;2.85;1.50;;;;;;;;;;5089355;28;20072;-70
2022/03/28 08:55:35;;;;;;;2.70;1.48;;;;;;;;;;5088223;28;20043;-71
2022/03/28 08:58:01;;;;;;;2.33;1.40;;;;;;;;;;5088435;28;20140;-70
2022/03/28 09:00:27;;;;;;;2.33;1.20;;;;;;;;;;5070530;28;20056;-72
2022/03/28 09:02:57;;;;;;;3.33;1.27;;;;;;;;;;5070336;28;20130;-70
2022/03/28 09:05:33;;;;;;;2.08;1.30;;;;;;;;;;5088516;28;20048;-71
2022/03/28 09:08:00;;;;;;;3.33;1.58;;;;;;;;;;5088665;28;20048;-70
2022/03/28 09:10:32;;;;;;;3.25;1.60;;;;;;;;;;5088136;28;20954;-70
2022/03/28 09:13:01;;;;;;;3.00;1.50;;;;;;;;;;5068990;28;20323;-70
2022/03/28 09:15:46;;;;;;;3.13;1.80;;;;;;;;;;5087186;28;20497;-71
2022/03/28 09:18:20;;;;;;;2.42;1.45;;;;;;;;;;5087766;28;20052;-70
2022/03/28 09:20:53;;;;;;;3.45;1.50;;;;;;;;;;5051726;28;20055;-69
2022/03/28 09:23:31;;;;;;;1.67;1.20;;;;;;;;;;5087882;28;20064;-70
2022/03/28 09:25:57;;;;;;;2.97;1.65;;;;;;;;;;5088601;28;20067;-70
2022/03/28 09:28:40;;;;;;;2.72;1.50;;;;;;;;;;5068921;28;20152;-70
2022/03/28 09:31:24;;;;;;;3.08;1.60;;;;;;;;;;5069119;28;20047;-69
2022/03/28 09:33:57;;;;;;;2.53;1.48;;;;;;;;;;5073672;28;20061;-70
2022/03/28 09:36:35;;;;;;;3.63;1.50;;;;;;;;;;5059639;28;20490;-71
2022/03/28 09:39:02;;;;;;;3.10;1.58;;;;;;;;;;5069448;28;20083;-71
2022/03/28 09:41:29;;;;;;;2.63;1.90;;;;;;;;;;5088120;28;20040;-71
2022/03/28 09:43:55;;;;;;;4.28;1.77;;;;;;;;;;5069358;28;20109;-70
2022/03/28 09:46:29;;;;;;;3.20;1.80;;;;;;;;;;5087190;28;20198;-72
2022/03/28 09:48:57;;;;;;;3.22;1.70;;;;;;;;;;5069468;28;20044;-72
2022/03/28 09:51:25;;;;;;;3.47;1.77;;;;;;;;;;5087251;28;20111;-72
2022/03/28 09:53:51;;;;;;;3.50;1.88;;;;;;;;;;5052711;28;20367;-72
2022/03/28 09:56:18;;;;;;;2.63;1.90;;;;;;;;;;5068258;28;20886;-71
2022/03/28 09:58:49;;;;;;;3.38;2.17;;;;;;;;;;5052984;28;20086;-71
2022/03/28 10:01:22;;;;;;;3.30;1.88;;;;;;;;;;5069029;28;20056;-71
2022/03/28 10:03:49;;;;;;;3.38;1.90;;;;;;;;;;5069221;28;20516;-72
2022/03/28 10:06:16;;;;;;;3.75;2.30;;;;;;;;;;5069863;28;20046;-70
2022/03/28 10:08:42;;;;;;;4.57;1.98;;;;;;;;;;5087049;28;20048;-71
2022/03/28 10:11:09;;;;;;;3.05;1.80;;;;;;;;;;5083344;28;20059;-72
2022/03/28 10:13:35;;;;;;;3.60;2.20;;;;;;;;;;5087477;28;20067;-70
2022/03/28 10:16:02;;;;;;;3.83;1.83;;;;;;;;;;5052707;28;20036;-70
2022/03/28 10:18:32;;;;;;;4.40;2.40;;;;;;;;;;5087344;28;20418;-70
2022/03/28 10:21:00;;;;;;;3.95;1.98;;;;;;;;;;5087707;28;20051;-71
2022/03/28 10:23:44;;;;;;;5.85;2.47;;;;;;;;;;5088141;28;20052;-71
2022/03/28 10:26:12;;;;;;;3.60;2.22;;;;;;;;;;5091778;28;20502;-72
2022/03/28 10:28:39;;;;;;;3.33;2.15;;;;;;;;;;5072759;28;20040;-72
2022/03/28 10:31:09;;;;;;;3.40;2.15;;;;;;;;;;5074065;28;20405;-68
2022/03/28 10:33:35;;;;;;;2.80;2.00;;;;;;;;;;5091996;28;20040;-70
2022/03/28 10:36:05;;;;;;;3.25;2.15;;;;;;;;;;5065928;28;20059;-69
2022/03/28 10:38:31;;;;;;;3.92;2.60;;;;;;;;;;5071050;28;20052;-69
2022/03/28 10:40:58;;;;;;;4.15;2.25;;;;;;;;;;5056878;28;20055;-69
2022/03/28 10:43:26;;;;;;;4.35;2.30;;;;;;;;;;5073904;28;20328;-69
2022/03/28 10:45:54;;;;;;;4.93;2.40;;;;;;;;;;5091099;28;20366;-69
2022/03/28 10:48:40;;;;;;;3.53;2.40;;;;;;;;;;5091786;28;20430;-70
2022/03/28 10:51:16;;;;;;;2.97;2.28;;;;;;;;;;5077815;28;20450;-71
2022/03/28 10:53:52;;;;;;;3.97;2.42;;;;;;;;;;5056447;28;20047;-70
2022/03/28 10:56:49;;;;;;;4.30;2.60;;;;;;;;;;5073263;28;20134;-71
2022/03/28 10:59:20;;;;;;;3.72;2.10;;;;;;;;;;5080204;28;20056;-69
2022/03/28 11:01:51;;;;;;;2.97;2.08;;;;;;;;;;5073683;28;20473;-72
2022/03/28 11:04:24;;;;;;;5.30;2.25;;;;;;;;;;5091042;28;20118;-72
2022/03/28 11:07:00;;;;;;;3.47;2.17;;;;;;;;;;5090807;28;20051;-71
2022/03/28 11:09:41;;;;;;;4.35;2.15;;;;;;;;;;5088835;28;20068;-71
2022/03/28 11:12:18;;;;;;;4.15;2.17;;;;;;;;;;5090815;28;20040;-72
2022/03/28 11:14:55;;;;;;;3.38;2.40;;;;;;;;;;5089735;28;20601;-72
2022/03/28 11:17:41;;;;;;;3.47;2.15;;;;;;;;;;5055774;28;20055;-70
2022/03/28 11:20:12;;;;;;;3.63;2.10;;;;;;;;;;5079059;28;20048;-70
2022/03/28 11:22:47;;;;;;;4.53;2.47;;;;;;;;;;5090635;28;20048;-71
2022/03/28 11:25:31;;;;;;;5.13;2.05;;;;;;;;;;5089900;28;20482;-71
2022/03/28 11:28:01;;;;;;;3.75;2.50;;;;;;;;;;5072219;28;20454;-70
2022/03/28 11:30:28;;;;;;;6.00;2.45;;;;;;;;;;5072242;28;20062;-70
2022/03/28 11:32:54;;;;;;;4.57;2.25;;;;;;;;;;5072147;28;20083;-70
2022/03/28 11:35:21;;;;;;;3.10;2.25;;;;;;;;;;5054643;28;20060;-71
2022/03/28 11:37:48;;;;;;;5.18;2.60;;;;;;;;;;5072223;28;20481;-70
2022/03/28 11:40:14;;;;;;;3.25;2.28;;;;;;;;;;5089592;28;20044;-70
2022/03/28 11:42:45;;;;;;;3.38;2.40;;;;;;;;;;5090682;28;20052;-71
2022/03/28 11:45:12;;;;;;;3.35;2.45;;;;;;;;;;5090128;28;20062;-72
2022/03/28 11:47:39;;;;;;;4.20;2.70;;;;;;;;;;5091088;28;20069;-73
2022/03/28 11:50:10;;;;;;;5.47;3.05;;;;;;;;;;5090948;28;20067;-72
2022/03/28 11:52:37;;;;;;;3.58;2.28;;;;;;;;;;5055579;28;20047;-72
2022/03/28 11:55:03;;;;;;;4.63;2.78;;;;;;;;;;5089537;28;20039;-71
2022/03/28 12:00:25;;;;;;;3.38;2.30;;;;;;;;;;5069398;28;20096;-72
2022/03/28 12:02:59;;;;;;;3.95;2.60;;;;;;;;;;5072120;28;20055;-71
2022/03/28 12:05:26;;;;;;;4.00;2.28;;;;;;;;;;5089862;28;20048;-70
2022/03/28 12:07:52;;;;;;;3.63;2.60;;;;;;;;;;5089691;28;20040;-70
2022/03/28 12:10:22;;;;;;;4.35;2.55;;;;;;;;;;5071313;28;20048;-70
2022/03/28 12:12:48;;;;;;;18.98;3.63;;;;;;;;;;5071640;28;20044;-67
2022/03/28 12:15:23;;;;;;;6.90;2.33;;;;;;;;;;5071797;28;20044;-67
2022/03/28 12:17:52;;;;;;;11.50;2.42;;;;;;;;;;5072366;28;20047;-67
2022/03/28 12:20:22;;;;;;;12.30;3.78;;;;;;;;;;5090193;28;20044;-67
2022/03/28 12:22:48;;;;;;;;;;;;;;;;;;5090591;28;20058;-68
2022/03/28 12:25:30;;;;;;;14.20;3.75;;;;;;;;;;5089569;28;19924;-67
2022/03/28 12:27:57;;;;;;;8.32;2.65;;;;;;;;;;5089473;28;20036;-67
2022/03/28 12:30:24;;;;;;;8.50;2.90;;;;;;;;;;5063728;28;20044;-67
2022/03/28 12:32:51;;;;;;;6.82;2.65;;;;;;;;;;5070834;28;20055;-67
2022/03/28 12:35:20;;;;;;;11.73;3.00;;;;;;;;;;5071661;28;20060;-67
2022/03/28 12:37:56;;;;;;;6.03;3.00;;;;;;;;;;5071524;28;20496;-67
2022/03/28 12:40:29;;;;;;;9.95;2.53;;;;;;;;;;5084454;28;20047;-67
2022/03/28 12:42:55;;;;;;;12.07;2.97;;;;;;;;;;5089480;28;20046;-67
2022/03/28 12:45:27;;;;;;;9.95;2.70;;;;;;;;;;5089238;28;20047;-67
2022/03/28 12:47:57;;;;;;;10.77;3.65;;;;;;;;;;5088712;28;20063;-66
2022/03/28 12:50:26;;;;;;;6.60;2.78;;;;;;;;;;5070692;28;20059;-66
2022/03/28 12:52:54;;;;;;;11.55;3.25;;;;;;;;;;5071355;28;20127;-66
2022/03/28 12:55:26;;;;;;;6.53;2.50;;;;;;;;;;5089341;28;20051;-67
2022/03/28 12:57:55;;;;;;;6.05;2.38;;;;;;;;;;5088858;28;20548;-66
2022/03/28 13:00:25;;;;;;;5.15;2.75;;;;;;;;;;5088572;28;20498;-65
2022/03/28 13:02:53;;;;;;;5.10;2.65;;;;;;;;;;5070755;28;20048;-66
2022/03/28 13:05:19;;;;;;;3.88;2.65;;;;;;;;;;5071293;28;20047;-67
2022/03/28 13:07:45;;;;;;;5.13;3.00;;;;;;;;;;5070980;28;20040;-65
2022/03/28 13:10:16;;;;;;;5.70;3.13;;;;;;;;;;5070647;28;20044;-66
2022/03/28 13:12:44;;;;;;;16.40;3.72;;;;;;;;;;5089060;28;20048;-67
2022/03/28 13:15:19;;;;;;;9.00;2.55;;;;;;;;;;5070006;28;20178;-66
2022/03/28 13:17:46;;;;;;;7.32;2.90;;;;;;;;;;5089166;28;20048;-70
2022/03/28 13:20:22;;;;;;;8.00;3.05;;;;;;;;;;5088759;28;20126;-67
2022/03/28 13:22:51;;;;;;;11.48;2.95;;;;;;;;;;5070608;28;20510;-68
2022/03/28 13:25:20;;;;;;;4.15;2.60;;;;;;;;;;5070489;28;20075;-68
2022/03/28 13:28:01;;;;;;;8.98;2.80;;;;;;;;;;5088447;28;20079;-67
2022/03/28 13:30:28;;;;;;;6.82;2.78;;;;;;;;;;5070881;28;20174;-67
2022/03/28 13:32:54;;;;;;;4.35;2.80;;;;;;;;;;5088135;28;20056;-67
2022/03/28 13:35:22;;;;;;;15.40;2.53;;;;;;;;;;5089036;28;20063;-68
2022/03/28 13:37:54;;;;;;;6.25;2.65;;;;;;;;;;5088924;28;20052;-68
2022/03/28 13:40:20;;;;;;;5.05;3.00;;;;;;;;;;5070131;28;20048;-66
2022/03/28 13:42:46;;;;;;;4.68;2.72;;;;;;;;;;5088594;28;20079;-71
2022/03/28 13:45:12;;;;;;;3.83;2.47;;;;;;;;;;5088751;28;20075;-68
2022/03/28 13:47:39;;;;;;;4.15;2.63;;;;;;;;;;5053949;28;20040;-67
2022/03/28 13:50:05;;;;;;;5.72;2.47;;;;;;;;;;5088647;28;20070;-69
2022/03/28 13:52:32;;;;;;;5.20;2.90;;;;;;;;;;5087906;28;20048;-68
2022/03/28 13:54:58;;;;;;;4.22;2.97;;;;;;;;;;5088276;28;20468;-67
2022/03/28 13:57:26;;;;;;;4.43;2.80;;;;;;;;;;5089301;28;20052;-68
2022/03/28 13:59:52;;;;;;;3.80;2.60;;;;;;;;;;5091983;28;20048;-68
2022/03/28 14:02:19;;;;;;;4.43;2.70;;;;;;;;;;5074416;28;20694;-68
2022/03/28 14:04:45;;;;;;;4.35;2.97;;;;;;;;;;5073926;28;20055;-69
2022/03/28 14:07:11;;;;;;;4.03;2.97;;;;;;;;;;5092872;28;20048;-69
2022/03/28 14:09:37;;;;;;;6.75;2.78;;;;;;;;;;5092609;28;20044;-69
2022/03/28 14:12:04;;;;;;;4.18;2.80;;;;;;;;;;5073907;28;20077;-69
2022/03/28 14:14:30;;;;;;;5.88;3.15;;;;;;;;;;5092646;28;20051;-70
2022/03/28 14:16:57;;;;;;;3.60;2.42;;;;;;;;;;5092271;28;20056;-70
2022/03/28 14:19:23;;;;;;;5.25;3.00;;;;;;;;;;5086462;28;20051;-68
2022/03/28 14:21:51;;;;;;;4.25;2.95;;;;;;;;;;5091197;28;20047;-69
2022/03/28 14:24:18;;;;;;;4.60;3.10;;;;;;;;;;5091489;28;20037;-69
2022/03/28 14:26:44;;;;;;;6.68;2.95;;;;;;;;;;5055957;28;20036;-68
2022/03/28 14:29:10;;;;;;;4.57;2.58;;;;;;;;;;5091105;28;20036;-67
2022/03/28 14:31:36;;;;;;;14.20;3.65;;;;;;;;;;5091336;28;20096;-68
2022/03/28 14:34:03;;;;;;;3.80;2.58;;;;;;;;;;5069509;28;20056;-66
2022/03/28 14:36:30;;;;;;;11.38;3.00;;;;;;;;;;5071720;28;20143;-68
2022/03/28 14:38:56;;;;;;;4.85;3.13;;;;;;;;;;5071309;28;20045;-66
2022/03/28 14:41:22;;;;;;;4.10;2.63;;;;;;;;;;5070707;28;20048;-66
2022/03/28 14:43:49;;;;;;;5.47;3.00;;;;;;;;;;5070791;28;20048;-66
2022/03/28 14:48:59;;;;;;;4.35;3.00;;;;;;;;;;5071885;28;20137;-66
2022/03/28 14:51:26;;;;;;;3.75;2.83;;;;;;;;;;5070014;28;20121;-66